Time;durP1;ratioP1;P1;durP2;ratioP2;P2;SDS_P1;SDS_P2;PMS_P1;PMS_P2;Temp;Humidity;BMP_temperature;BMP_pressure;BME280_temperature;BME280_humidity;BME280_pressure;Samples;Min_cycle;Max_cycle;Signal;HPM_P1;HPM_P2
2022/12/18 00:01:32;;;;;;;3.02;2.72;;;;;;;2.06;79.49;100393.34;1727887;82;21074;-73
2022/12/18 00:04:00;;;;;;;3.58;3.05;;;;;;;2.06;79.43;100386.84;1715420;82;21054;-75
2022/12/18 00:06:28;;;;;;;3.02;2.65;;;;;;;2.07;79.39;100390.28;1688288;85;20952;-74
2022/12/18 00:08:56;;;;;;;3.47;2.70;;;;;;;2.08;79.32;100399.79;1694607;82;21537;-74
2022/12/18 00:11:24;;;;;;;3.87;3.37;;;;;;;2.07;79.27;100402.01;1705083;82;21056;-74
2022/12/18 00:13:53;;;;;;;4.75;4.20;;;;;;;2.04;79.01;100413.42;1716341;83;21504;-73
2022/12/18 00:16:22;;;;;;;4.83;3.83;;;;;;;2.01;78.72;100402.65;1716143;82;21008;-74
2022/12/18 00:18:51;;;;;;;5.20;4.70;;;;;;;2.00;78.48;100414.45;1716168;83;21573;-74
2022/12/18 00:21:17;;;;;;;5.72;4.78;;;;;;;1.97;78.35;100414.59;1693898;82;22613;-74
2022/12/18 00:23:44;;;;;;;5.20;4.65;;;;;;;1.93;78.31;100423.00;1716115;82;20954;-75
2022/12/18 00:26:18;;;;;;;6.12;4.62;;;;;;;1.91;78.29;100411.78;1695552;83;21178;-74
2022/12/18 00:28:45;;;;;;;6.00;4.85;;;;;;;1.93;78.30;100418.22;1691937;82;21041;-74
2022/12/18 00:31:15;;;;;;;5.60;5.00;;;;;;;1.91;77.99;100414.38;1716341;82;21000;-74
2022/12/18 00:33:41;;;;;;;5.80;5.20;;;;;;;1.89;77.93;100425.33;1716338;82;21799;-76
2022/12/18 00:36:13;;;;;;;6.92;5.47;;;;;;;1.89;77.79;100429.23;1716066;82;21470;-74
2022/12/18 00:38:40;;;;;;;6.05;5.37;;;;;;;1.88;77.76;100426.70;1715968;82;21676;-74
2022/12/18 00:41:09;;;;;;;6.40;5.62;;;;;;;1.86;77.77;100437.19;1716217;83;21457;-74
2022/12/18 00:43:37;;;;;;;6.72;5.53;;;;;;;1.86;77.72;100439.80;1709246;82;20942;-73
2022/12/18 00:46:03;;;;;;;7.87;5.90;;;;;;;1.87;77.80;100438.88;1716389;82;21871;-73
2022/12/18 00:48:33;;;;;;;7.00;5.78;;;;;;;1.85;77.82;100436.80;1716424;83;20996;-73
2022/12/18 00:50:59;;;;;;;7.58;6.30;;;;;;;1.86;77.89;100445.00;1716073;81;21114;-73
2022/12/18 00:53:26;;;;;;;7.03;5.75;;;;;;;1.85;77.91;100447.22;1716461;83;21092;-73
2022/12/18 00:55:52;;;;;;;7.37;6.30;;;;;;;1.85;77.94;100450.28;1716552;82;21001;-73
2022/12/18 00:58:19;;;;;;;7.80;6.72;;;;;;;1.83;78.00;100450.32;1716418;82;22563;-73
2022/12/18 01:00:45;;;;;;;7.87;6.70;;;;;;;1.82;78.12;100448.62;1708888;83;21385;-73
2022/12/18 01:03:13;;;;;;;7.70;6.62;;;;;;;1.81;78.26;100452.61;1716179;83;21000;-73
2022/12/18 01:05:41;;;;;;;9.08;6.83;;;;;;;1.81;78.32;100450.00;1716031;83;21036;-73
2022/12/18 01:08:08;;;;;;;9.05;7.47;;;;;;;1.80;78.29;100460.03;1716435;82;21151;-73
2022/12/18 01:10:35;;;;;;;10.43;8.23;;;;;;;1.76;78.34;100455.88;1714006;82;21941;-73
2022/12/18 01:13:02;;;;;;;12.03;9.68;;;;;;;1.75;78.33;100456.79;1698261;83;21004;-73
2022/12/18 01:15:28;;;;;;;11.15;9.48;;;;;;;1.71;78.21;100467.31;1716152;83;20989;-73
2022/12/18 01:17:54;;;;;;;11.88;9.65;;;;;;;1.67;78.10;100470.97;1698894;82;21406;-73
2022/12/18 01:20:21;;;;;;;10.98;7.87;;;;;;;1.63;78.09;100481.09;1716220;82;21005;-73
2022/12/18 01:22:48;;;;;;;12.25;9.55;;;;;;;1.59;77.81;100480.84;1716028;82;21855;-73
2022/12/18 01:25:14;;;;;;;11.78;9.25;;;;;;;1.51;77.76;100490.71;1726039;81;20928;-73
2022/12/18 01:27:40;;;;;;;12.47;8.85;;;;;;;1.46;77.66;100493.97;1726406;83;21004;-73
2022/12/18 01:30:08;;;;;;;11.88;9.90;;;;;;;1.42;77.47;100487.17;1716276;82;21421;-73
2022/12/18 01:32:35;;;;;;;12.73;10.10;;;;;;;1.36;77.41;100485.68;1726310;83;20957;-73
2022/12/18 01:35:03;;;;;;;12.25;9.58;;;;;;;1.31;77.31;100477.19;1700113;83;23370;-74
2022/12/18 01:37:31;;;;;;;12.37;9.90;;;;;;;1.29;77.34;100479.47;1684255;84;21010;-73
2022/12/18 01:39:58;;;;;;;11.95;9.85;;;;;;;1.28;77.35;100478.63;1709336;83;20942;-74
2022/12/18 01:42:25;;;;;;;12.80;10.13;;;;;;;1.28;77.33;100484.28;1701337;84;20976;-73
2022/12/18 01:45:10;;;;;;;12.63;10.53;;;;;;;1.27;77.35;100496.91;1697783;84;20983;-73
2022/12/18 01:47:47;;;;;;;12.25;9.80;;;;;;;1.26;77.38;100495.22;1717424;83;22077;-73
2022/12/18 01:50:39;;;;;;;13.65;10.40;;;;;;;1.26;77.32;100490.01;1754281;80;20937;-73
2022/12/18 01:53:15;;;;;;;13.98;10.82;;;;;;;1.23;77.33;100485.75;1725446;83;20983;-73
2022/12/18 01:55:55;;;;;;;12.23;9.63;;;;;;;1.21;77.38;100490.63;1726458;81;20977;-73
2022/12/18 01:58:42;;;;;;;13.43;10.93;;;;;;;1.20;77.30;100481.13;1726320;81;21522;-73
2022/12/18 02:01:09;;;;;;;13.90;10.75;;;;;;;1.18;77.40;100477.30;1716155;83;22085;-73
2022/12/18 02:03:36;;;;;;;13.15;10.68;;;;;;;1.19;77.33;100484.64;1726353;83;20953;-73
2022/12/18 02:06:17;;;;;;;14.15;10.75;;;;;;;1.14;77.35;100493.45;1716138;82;20993;-73
2022/12/18 02:09:14;;;;;;;14.13;11.28;;;;;;;1.12;77.26;100493.97;1714192;82;20984;-73
2022/12/18 02:12:08;;;;;;;14.65;11.00;;;;;;;1.09;77.24;100494.56;1709913;82;21019;-74
2022/12/18 02:14:49;;;;;;;13.55;10.40;;;;;;;1.08;77.29;100497.61;1698902;81;22505;-74
2022/12/18 02:17:22;;;;;;;14.60;11.12;;;;;;;1.08;77.14;100499.38;1718577;81;20993;-73
2022/12/18 02:20:35;;;;;;;14.65;10.45;;;;;;;1.06;77.12;100510.26;1729721;81;21003;-73
2022/12/18 02:23:36;;;;;;;13.65;10.68;;;;;;;1.04;77.11;100522.03;1698068;84;20962;-73
2022/12/18 02:26:35;;;;;;;13.60;10.38;;;;;;;1.01;76.90;100519.55;1713603;83;21029;-73
2022/12/18 02:29:18;;;;;;;12.53;10.18;;;;;;;0.97;76.90;100528.39;1727066;83;22296;-73
2022/12/18 02:31:53;;;;;;;13.35;10.18;;;;;;;0.97;76.90;100537.49;1701197;83;20977;-73
2022/12/18 02:34:21;;;;;;;11.88;9.75;;;;;;;0.98;76.86;100548.28;1728158;83;21016;-73
2022/12/18 02:36:47;;;;;;;14.03;10.50;;;;;;;0.99;76.74;100548.68;1727871;83;20977;-73
2022/12/18 02:39:16;;;;;;;12.28;10.20;;;;;;;0.97;76.65;100546.59;1727673;82;20964;-73
2022/12/18 02:41:44;;;;;;;13.13;10.38;;;;;;;0.96;76.61;100549.22;1694566;83;21845;-73
2022/12/18 02:44:12;;;;;;;13.15;10.65;;;;;;;0.93;76.50;100555.84;1722156;83;21450;-73
2022/12/18 02:46:52;;;;;;;12.75;10.50;;;;;;;0.91;76.43;100558.52;1727617;83;21533;-74
2022/12/18 02:49:44;;;;;;;13.68;11.18;;;;;;;0.90;76.50;100566.37;1704961;83;20996;-73
2022/12/18 02:52:50;;;;;;;12.58;10.15;;;;;;;0.89;76.30;100561.63;1727681;81;20937;-73
2022/12/18 02:55:30;;;;;;;12.60;10.15;;;;;;;0.89;76.15;100576.38;1728105;82;22434;-74
2022/12/18 02:58:23;;;;;;;13.70;10.58;;;;;;;0.83;75.94;100568.34;1698607;84;20955;-73
2022/12/18 03:01:08;;;;;;;14.87;11.28;;;;;;;0.83;75.92;100576.14;1682562;84;21026;-74
2022/12/18 03:03:57;;;;;;;15.08;11.75;;;;;;;0.81;75.92;100582.70;1638936;86;21034;-73
2022/12/18 03:06:32;;;;;;;14.90;11.73;;;;;;;0.80;75.87;100590.56;1686256;83;20969;-74
2022/12/18 03:09:03;;;;;;;15.10;11.70;;;;;;;0.78;75.80;100610.13;1703806;83;21483;-72
2022/12/18 03:14:17;;;;;;;16.23;12.45;;;;;;;0.78;75.84;100606.22;1689352;85;20944;-73
2022/12/18 03:16:46;;;;;;;15.32;12.47;;;;;;;0.77;75.84;100605.83;1709287;83;20960;-73
2022/12/18 03:19:16;;;;;;;16.37;12.53;;;;;;;0.76;75.89;100609.30;1717418;83;21108;-72
2022/12/18 03:21:47;;;;;;;16.35;13.35;;;;;;;0.77;75.92;100614.92;1718097;83;21901;-73
2022/12/18 03:24:15;;;;;;;16.05;13.30;;;;;;;0.79;75.93;100617.47;1717978;83;20960;-73
2022/12/18 03:26:45;;;;;;;16.75;13.15;;;;;;;0.79;75.95;100624.81;1717211;83;21023;-73
2022/12/18 03:29:20;;;;;;;18.45;13.75;;;;;;;0.81;76.02;100631.25;1717221;83;21875;-73
2022/12/18 03:31:51;;;;;;;18.25;13.62;;;;;;;0.80;76.02;100631.70;1717483;83;20913;-73
2022/12/18 03:34:24;;;;;;;15.65;12.68;;;;;;;0.79;75.97;100635.22;1693687;83;21911;-73
2022/12/18 03:36:50;;;;;;;16.35;13.35;;;;;;;0.75;75.94;100642.70;1709484;83;21045;-73
2022/12/18 03:39:19;;;;;;;16.42;12.73;;;;;;;0.75;76.00;100654.41;1717858;83;20922;-73
2022/12/18 03:42:10;;;;;;;15.40;12.30;;;;;;;0.74;75.85;100657.06;1717008;83;20977;-73
2022/12/18 03:45:09;;;;;;;15.00;12.55;;;;;;;0.69;75.64;100668.09;1712342;83;21378;-73
2022/12/18 03:47:57;;;;;;;15.63;12.65;;;;;;;0.64;75.60;100669.98;1708652;83;21953;-73
2022/12/18 03:50:39;;;;;;;16.87;12.90;;;;;;;0.60;75.54;100669.70;1704870;82;21481;-73
2022/12/18 03:53:33;;;;;;;18.30;13.40;;;;;;;0.60;75.61;100677.49;1717647;83;21385;-74
2022/12/18 03:56:00;;;;;;;18.50;13.55;;;;;;;0.60;75.62;100694.39;1717271;83;21047;-73
2022/12/18 03:58:29;;;;;;;17.37;13.80;;;;;;;0.58;75.67;100689.24;1717641;81;20933;-74
2022/12/18 04:01:02;;;;;;;17.73;13.83;;;;;;;0.59;75.76;100694.84;1716353;83;21830;-74
2022/12/18 04:03:30;;;;;;;19.17;14.75;;;;;;;0.63;75.78;100698.17;1717641;83;21005;-73
2022/12/18 04:05:56;;;;;;;20.32;14.70;;;;;;;0.61;75.81;100699.53;1717333;83;20938;-73
2022/12/18 04:08:24;;;;;;;19.85;15.45;;;;;;;0.59;75.66;100707.84;1711120;83;20974;-73
2022/12/18 04:10:55;;;;;;;20.30;15.95;;;;;;;0.54;75.62;100703.22;1713272;83;21044;-74
2022/12/18 04:13:24;;;;;;;20.82;16.15;;;;;;;0.52;75.66;100707.17;1717455;83;21801;-73
2022/12/18 04:15:51;;;;;;;21.52;15.50;;;;;;;0.51;75.61;100708.53;1717363;83;21021;-74
2022/12/18 04:18:18;;;;;;;20.08;15.45;;;;;;;0.52;75.60;100705.88;1717519;83;20913;-73
2022/12/18 04:20:44;;;;;;;22.27;16.15;;;;;;;0.47;75.49;100715.56;1717354;83;21022;-74
2022/12/18 04:23:11;;;;;;;21.50;16.70;;;;;;;0.45;75.57;100717.36;1717009;82;21068;-73
2022/12/18 04:25:38;;;;;;;21.93;17.32;;;;;;;0.43;75.47;100727.41;1696096;82;21960;-73
2022/12/18 04:28:07;;;;;;;21.17;16.55;;;;;;;0.38;75.41;100723.65;1711337;82;21488;-73
2022/12/18 04:30:33;;;;;;;22.17;16.45;;;;;;;0.37;75.46;100725.84;1716222;82;21558;-73
2022/12/18 04:33:00;;;;;;;23.42;17.55;;;;;;;0.37;75.51;100734.94;1695682;83;21481;-73
2022/12/18 04:35:28;;;;;;;22.50;16.15;;;;;;;0.34;75.36;100737.64;1716130;82;21060;-73
2022/12/18 04:37:54;;;;;;;22.52;16.40;;;;;;;0.30;75.37;100736.06;1716213;82;21891;-73
2022/12/18 04:40:21;;;;;;;24.72;17.57;;;;;;;0.29;75.45;100746.05;1715738;83;21021;-74
2022/12/18 04:42:48;;;;;;;26.93;20.45;;;;;;;0.27;75.39;100750.42;1694821;82;21009;-73
2022/12/18 04:45:15;;;;;;;23.12;17.20;;;;;;;0.22;75.38;100751.87;1742519;81;20979;-73
2022/12/18 04:47:41;;;;;;;24.25;17.87;;;;;;;0.22;75.48;100754.92;1716564;82;21063;-73
2022/12/18 04:50:08;;;;;;;23.87;18.05;;;;;;;0.20;75.49;100757.58;1716364;82;22007;-73
2022/12/18 04:52:35;;;;;;;24.05;17.95;;;;;;;0.21;75.44;100757.12;1716254;82;20945;-74
2022/12/18 04:55:03;;;;;;;20.20;15.93;;;;;;;0.21;75.47;100761.87;1726537;81;21028;-73
2022/12/18 04:57:29;;;;;;;22.15;16.50;;;;;;;0.24;75.55;100757.02;1713662;82;21084;-73
2022/12/18 04:59:56;;;;;;;22.82;17.25;;;;;;;0.24;75.41;100753.13;1697677;84;20951;-74
2022/12/18 05:02:22;;;;;;;21.73;16.95;;;;;;;0.21;75.43;100764.47;1723970;81;21890;-74
2022/12/18 05:04:49;;;;;;;34.90;26.20;;;;;;;0.22;75.47;100778.30;1716592;83;20954;-74
2022/12/18 05:07:15;;;;;;;23.95;18.45;;;;;;;0.21;75.43;100770.96;1725931;83;20941;-74
2022/12/18 05:09:42;;;;;;;27.65;21.65;;;;;;;0.19;75.30;100769.28;1716097;82;21040;-74
2022/12/18 05:12:09;;;;;;;23.42;17.65;;;;;;;0.16;75.36;100767.64;1716491;82;21452;-74
2022/12/18 05:14:36;;;;;;;23.55;17.62;;;;;;;0.19;75.36;100770.58;1722712;82;21821;-75
2022/12/18 05:17:02;;;;;;;23.25;16.23;;;;;;;0.12;75.19;100766.05;1719371;81;20915;-74
2022/12/18 05:19:29;;;;;;;21.50;16.73;;;;;;;0.13;75.21;100773.39;1716299;82;21004;-74
2022/12/18 05:21:55;;;;;;;23.55;17.32;;;;;;;0.14;75.16;100791.97;1716190;83;21009;-74
2022/12/18 05:24:22;;;;;;;21.62;16.57;;;;;;;0.09;75.00;100784.30;1716027;83;21546;-73
2022/12/18 05:26:48;;;;;;;23.12;17.20;;;;;;;0.08;75.08;100795.58;1717147;82;21505;-75
2022/12/18 05:29:15;;;;;;;22.30;17.12;;;;;;;0.08;75.13;100802.08;1719371;82;20988;-74
2022/12/18 05:31:41;;;;;;;25.00;18.00;;;;;;;0.07;75.11;100802.13;1720815;82;21066;-74
2022/12/18 05:34:08;;;;;;;22.73;16.67;;;;;;;0.06;75.18;100809.52;1725486;82;20977;-74
2022/12/18 05:36:35;;;;;;;22.65;16.25;;;;;;;0.07;75.13;100817.26;1720295;82;21119;-74
2022/12/18 05:39:01;;;;;;;21.90;16.25;;;;;;;0.05;74.95;100816.45;1720006;82;21915;-74
2022/12/18 05:41:28;;;;;;;19.82;15.32;;;;;;;0.03;74.98;100823.45;1719956;82;20961;-74
2022/12/18 05:43:55;;;;;;;22.62;16.95;;;;;;;0.01;74.95;100829.59;1719872;83;20972;-74
2022/12/18 05:46:21;;;;;;;21.25;16.65;;;;;;;-0.01;75.01;100834.35;1720839;82;21060;-73
2022/12/18 05:48:50;;;;;;;20.50;14.93;;;;;;;0.01;75.03;100837.38;1721679;82;21023;-74
2022/12/18 05:51:17;;;;;;;22.17;16.15;;;;;;;0.03;75.01;100842.08;1725914;82;21729;-74
2022/12/18 05:53:45;;;;;;;20.45;15.28;;;;;;;0.02;74.88;100851.62;1724052;82;20981;-74
2022/12/18 05:56:14;;;;;;;21.17;15.00;;;;;;;0.01;74.86;100853.81;1719792;82;21013;-74
2022/12/18 05:58:41;;;;;;;20.62;14.80;;;;;;;0.03;74.84;100857.66;1727343;82;21042;-74
2022/12/18 06:01:15;;;;;;;20.08;15.48;;;;;;;0.01;74.56;100868.55;1680491;84;20967;-74
2022/12/18 06:03:42;;;;;;;20.57;14.58;;;;;;;-0.04;74.50;100885.09;1682856;84;21902;-74
2022/12/18 06:06:20;;;;;;;18.95;14.87;;;;;;;-0.07;74.42;100888.22;1692048;84;20959;-74
2022/12/18 06:08:47;;;;;;;17.27;13.43;;;;;;;-0.09;74.35;100890.87;1680988;84;21042;-74
2022/12/18 06:11:20;;;;;;;16.05;12.07;;;;;;;-0.09;74.24;100899.95;1676894;84;21451;-74
2022/12/18 06:13:52;;;;;;;15.30;11.08;;;;;;;-0.09;74.11;100894.77;1702173;84;20969;-73
2022/12/18 06:16:18;;;;;;;15.72;12.00;;;;;;;-0.12;73.37;100893.97;1682709;84;21947;-73
2022/12/18 06:18:45;;;;;;;25.17;19.23;;;;;;;-0.16;73.34;100904.05;1701914;84;20946;-73
2022/12/18 06:21:12;;;;;;;28.60;21.93;;;;;;;-0.17;73.15;100912.29;1701728;84;21029;-74
2022/12/18 06:23:39;;;;;;;17.73;14.20;;;;;;;-0.19;72.41;100898.50;1673856;84;20970;-73
2022/12/18 06:26:08;;;;;;;14.83;11.83;;;;;;;-0.23;72.50;100903.80;1715288;83;20956;-73
2022/12/18 06:28:34;;;;;;;16.27;12.20;;;;;;;-0.24;72.27;100908.59;1722630;83;21982;-73
2022/12/18 06:31:03;;;;;;;17.23;13.43;;;;;;;-0.24;72.15;100912.48;1715845;82;21045;-73
2022/12/18 06:33:30;;;;;;;14.23;11.15;;;;;;;-0.28;72.09;100922.11;1716856;83;21847;-73
2022/12/18 06:36:06;;;;;;;14.33;10.80;;;;;;;-0.28;71.88;100927.30;1716299;82;20969;-73
2022/12/18 06:38:34;;;;;;;14.35;10.78;;;;;;;-0.27;71.77;100919.06;1713454;83;21491;-73
2022/12/18 06:41:00;;;;;;;18.10;11.83;;;;;;;-0.28;71.90;100931.19;1716326;82;22609;-74
2022/12/18 06:43:28;;;;;;;14.73;10.28;;;;;;;-0.30;71.66;100935.55;1715404;82;21033;-73
2022/12/18 06:46:01;;;;;;;15.20;11.80;;;;;;;-0.34;71.57;100943.87;1736306;81;21457;-73
2022/12/18 06:48:27;;;;;;;15.53;12.13;;;;;;;-0.37;71.74;100932.28;1726283;81;20957;-73
2022/12/18 06:50:54;;;;;;;14.55;11.18;;;;;;;-0.36;71.78;100935.72;1693050;83;21036;-73
2022/12/18 06:53:21;;;;;;;15.30;12.00;;;;;;;-0.33;71.90;100940.38;1720839;81;21918;-73
2022/12/18 06:55:47;;;;;;;16.25;12.25;;;;;;;-0.30;71.96;100950.67;1744732;81;21515;-73
2022/12/18 06:58:13;;;;;;;17.90;12.50;;;;;;;-0.30;72.08;100955.86;1715632;82;21094;-74
2022/12/18 07:00:40;;;;;;;16.87;12.15;;;;;;;-0.26;72.14;100955.81;1716494;82;21886;-74
2022/12/18 07:03:07;;;;;;;15.72;12.35;;;;;;;-0.25;72.07;100955.77;1746689;81;20994;-73
2022/12/18 07:05:34;;;;;;;16.93;12.60;;;;;;;-0.25;72.05;100962.25;1726537;83;22237;-73
2022/12/18 07:08:00;;;;;;;15.83;12.50;;;;;;;-0.25;72.01;100966.14;1726192;81;21026;-73
2022/12/18 07:10:27;;;;;;;17.17;13.40;;;;;;;-0.21;72.14;100974.70;1706918;81;21053;-73
2022/12/18 07:12:53;;;;;;;15.70;12.18;;;;;;;-0.18;72.10;100969.45;1714167;81;21008;-73
2022/12/18 07:15:20;;;;;;;14.58;11.48;;;;;;;-0.18;71.92;100975.48;1692505;83;20968;-73
2022/12/18 07:17:46;;;;;;;15.53;11.73;;;;;;;-0.26;71.39;100990.85;1705049;82;21942;-73
2022/12/18 07:20:12;;;;;;;16.35;11.10;;;;;;;-0.29;71.47;100987.86;1726383;81;20983;-73
2022/12/18 07:22:39;;;;;;;13.25;10.38;;;;;;;-0.28;71.41;100992.64;1726533;81;20977;-74
2022/12/18 07:25:08;;;;;;;13.45;10.55;;;;;;;-0.28;71.20;100994.79;1716871;83;21182;-73
2022/12/18 07:27:34;;;;;;;13.60;10.78;;;;;;;-0.34;70.65;101007.45;1726504;81;21005;-73
2022/12/18 07:30:01;;;;;;;13.22;10.70;;;;;;;-0.39;70.52;101006.70;1715868;81;21944;-73
2022/12/18 07:32:28;;;;;;;14.20;10.43;;;;;;;-0.43;70.55;101007.68;1704014;82;20866;-73
2022/12/18 07:34:54;;;;;;;12.00;9.80;;;;;;;-0.43;70.42;101013.31;1716287;82;21049;-73
2022/12/18 07:37:20;;;;;;;12.75;9.43;;;;;;;-0.45;69.82;101020.30;1713664;81;21056;-73
2022/12/18 07:39:47;;;;;;;13.98;10.55;;;;;;;-0.53;69.04;101036.03;1695036;81;21385;-74
2022/12/18 07:42:32;;;;;;;12.85;10.18;;;;;;;-0.59;68.87;101037.45;1720282;81;21724;-74
2022/12/18 07:45:00;;;;;;;12.28;9.10;;;;;;;-0.64;68.42;101046.66;1726462;81;20932;-73
2022/12/18 07:47:28;;;;;;;13.13;9.90;;;;;;;-0.68;68.24;101054.09;1693656;82;21365;-73
2022/12/18 07:49:54;;;;;;;13.85;10.38;;;;;;;-0.70;67.88;101053.27;1706256;82;21415;-73
2022/12/18 07:52:21;;;;;;;14.87;10.63;;;;;;;-0.72;67.80;101073.21;1726421;83;21015;-73
2022/12/18 07:54:49;;;;;;;13.75;10.03;;;;;;;-0.71;68.02;101064.98;1726533;81;22575;-71
2022/12/18 07:57:17;;;;;;;13.55;9.38;;;;;;;-0.69;68.03;101077.47;1726194;81;21408;-73
2022/12/18 07:59:43;;;;;;;14.33;10.50;;;;;;;-0.68;67.90;101089.11;1716199;83;20968;-73
2022/12/18 08:02:10;;;;;;;13.08;9.90;;;;;;;-0.69;67.45;101084.80;1726176;83;21624;-73
2022/12/18 08:04:37;;;;;;;13.65;9.93;;;;;;;-0.73;67.38;101085.77;1714864;82;21533;-74
2022/12/18 08:07:03;;;;;;;13.13;9.85;;;;;;;-0.76;67.37;101079.81;1716256;82;22597;-73
2022/12/18 08:09:30;;;;;;;14.40;10.18;;;;;;;-0.77;67.45;101084.56;1726199;81;20956;-73
2022/12/18 08:11:57;;;;;;;12.85;9.95;;;;;;;-0.72;67.69;101099.15;1716279;82;21537;-73
2022/12/18 08:14:23;;;;;;;13.25;10.10;;;;;;;-0.69;67.64;101095.19;1691163;82;21443;-73
2022/12/18 08:16:50;;;;;;;12.78;9.45;;;;;;;-0.64;67.73;101105.48;1726104;81;21517;-73
2022/12/18 08:19:16;;;;;;;12.13;9.13;;;;;;;-0.62;67.29;101105.00;1716304;82;21917;-73
2022/12/18 08:21:43;;;;;;;12.20;9.50;;;;;;;-0.67;66.86;101104.26;1725780;81;21393;-73
2022/12/18 08:24:10;;;;;;;12.95;9.65;;;;;;;-0.71;67.02;101109.08;1726283;81;21424;-73
2022/12/18 08:26:37;;;;;;;11.45;9.10;;;;;;;-0.69;67.16;101115.94;1726293;81;20992;-74
2022/12/18 08:29:04;;;;;;;13.83;9.70;;;;;;;-0.68;66.83;101124.57;1724962;81;21415;-73
2022/12/18 08:31:31;;;;;;;14.53;9.73;;;;;;;-0.71;66.51;101119.02;1727556;83;22561;-73
2022/12/18 08:33:57;;;;;;;13.55;9.80;;;;;;;-0.78;66.24;101121.31;1727295;83;20926;-74
2022/12/18 08:36:24;;;;;;;12.75;9.08;;;;;;;-0.83;66.51;101121.87;1726036;83;20972;-74
2022/12/18 08:38:50;;;;;;;13.38;9.60;;;;;;;-0.90;66.17;101128.06;1705707;83;21043;-73
2022/12/18 08:41:19;;;;;;;13.48;9.75;;;;;;;-0.95;66.31;101122.13;1727353;82;20918;-74
2022/12/18 08:46:37;;;;;;;13.70;9.53;;;;;;;-0.94;66.67;101125.13;1727728;83;20960;-73
2022/12/18 08:49:05;;;;;;;13.28;9.88;;;;;;;-0.93;66.67;101123.80;1700687;83;21027;-73
2022/12/18 08:51:31;;;;;;;13.90;9.98;;;;;;;-0.97;66.64;101129.06;1717334;82;21507;-74
2022/12/18 08:53:58;;;;;;;13.60;9.45;;;;;;;-1.00;66.74;101136.47;1696634;83;21355;-73
2022/12/18 08:56:24;;;;;;;15.58;11.97;;;;;;;-0.98;66.84;101141.61;1726229;83;21811;-73
2022/12/18 08:58:54;;;;;;;13.55;9.65;;;;;;;-1.00;66.73;101148.58;1727700;82;21491;-73
2022/12/18 09:01:22;;;;;;;12.55;9.78;;;;;;;-1.06;66.51;101139.61;1727715;82;20976;-73
2022/12/18 09:03:50;;;;;;;12.90;9.60;;;;;;;-1.14;66.59;101146.27;1727304;83;20940;-74
2022/12/18 09:06:19;;;;;;;11.73;8.80;;;;;;;-1.18;66.62;101152.37;1727820;83;20956;-73
2022/12/18 09:08:46;;;;;;;13.28;9.65;;;;;;;-1.19;66.65;101159.30;1727505;83;21883;-73
2022/12/18 09:11:25;;;;;;;12.60;9.50;;;;;;;-1.18;66.84;101153.22;1694378;83;21499;-73
2022/12/18 09:13:53;;;;;;;10.60;8.45;;;;;;;-1.15;66.45;101152.33;1717591;82;20988;-73
2022/12/18 09:16:20;;;;;;;10.93;8.50;;;;;;;-1.16;66.28;101151.89;1728113;83;20921;-73
2022/12/18 09:18:47;;;;;;;11.85;8.83;;;;;;;-1.18;66.11;101163.59;1727644;83;21383;-74
2022/12/18 09:21:20;;;;;;;14.18;10.55;;;;;;;-1.21;65.99;101160.21;1727770;83;21715;-73
2022/12/18 09:23:51;;;;;;;13.05;9.80;;;;;;;-1.25;65.97;101167.20;1727636;83;21012;-73
2022/12/18 09:26:17;;;;;;;15.40;11.80;;;;;;;-1.29;65.80;101168.13;1727593;82;20940;-73
2022/12/18 09:28:43;;;;;;;13.18;9.13;;;;;;;-1.32;65.90;101170.78;1726264;82;21008;-73
2022/12/18 09:31:11;;;;;;;12.15;8.83;;;;;;;-1.33;65.75;101171.66;1714927;82;21044;-74
2022/12/18 09:33:37;;;;;;;12.82;8.75;;;;;;;-1.36;65.73;101187.69;1716259;82;21918;-74
2022/12/18 09:36:07;;;;;;;12.30;8.58;;;;;;;-1.42;65.75;101186.08;1716164;82;20998;-73
2022/12/18 09:38:34;;;;;;;11.12;8.75;;;;;;;-1.46;65.80;101181.80;1716500;83;21402;-74
2022/12/18 09:41:20;;;;;;;11.55;8.75;;;;;;;-1.46;65.97;101190.43;1716005;83;21063;-74
2022/12/18 09:43:52;;;;;;;9.93;7.28;;;;;;;-1.45;65.75;101187.40;1716658;82;20942;-73
2022/12/18 09:46:25;;;;;;;10.45;7.65;;;;;;;-1.49;65.25;101189.64;1715799;81;25540;-74
2022/12/18 09:48:52;;;;;;;10.68;8.60;;;;;;;-1.53;64.93;101188.00;1689814;83;21017;-74
2022/12/18 09:51:24;;;;;;;76.50;43.95;;;;;;;-1.55;64.81;101185.41;1716358;83;20946;-73
2022/12/18 09:53:55;;;;;;;57.85;40.48;;;;;;;-1.51;64.92;101194.00;1716445;82;21048;-73
2022/12/18 09:56:22;;;;;;;16.80;13.05;;;;;;;-1.51;64.63;101178.02;1715982;82;21057;-73
2022/12/18 09:59:00;;;;;;;12.28;9.80;;;;;;;-1.56;64.20;101189.31;1715864;82;21794;-73
2022/12/18 10:01:28;;;;;;;11.00;8.60;;;;;;;-1.55;64.47;101201.39;1706775;82;20953;-73
2022/12/18 10:03:54;;;;;;;11.10;8.10;;;;;;;-1.53;64.37;101196.62;1713693;82;21090;-73
2022/12/18 10:06:32;;;;;;;10.30;7.37;;;;;;;-1.52;64.21;101183.23;1716257;82;21080;-73
2022/12/18 10:09:04;;;;;;;11.25;7.25;;;;;;;-1.55;63.60;101198.80;1716206;82;21076;-73
2022/12/18 10:12:03;;;;;;;11.03;8.35;;;;;;;-1.60;63.58;101191.56;1711749;82;21816;-73
2022/12/18 10:15:02;;;;;;;10.90;8.35;;;;;;;-1.62;63.85;101195.91;1687887;85;20960;-73
2022/12/18 10:18:09;;;;;;;16.90;12.47;;;;;;;-1.60;64.09;101195.44;1709103;82;21467;-73
2022/12/18 10:20:49;;;;;;;11.57;9.05;;;;;;;-1.57;63.80;101195.38;1711894;82;21024;-73
2022/12/18 10:23:35;;;;;;;11.90;8.33;;;;;;;-1.59;64.09;101201.89;1685423;83;21065;-73
2022/12/18 10:26:05;;;;;;;10.60;7.75;;;;;;;-1.61;63.92;101197.62;1716022;82;22509;-73
2022/12/18 10:28:38;;;;;;;10.75;7.58;;;;;;;-1.61;63.91;101205.39;1716337;82;20973;-73
2022/12/18 10:31:21;;;;;;;10.53;8.03;;;;;;;-1.59;64.09;101212.69;1716198;82;21052;-73
2022/12/18 10:33:47;;;;;;;12.03;8.50;;;;;;;-1.58;64.01;101210.52;1695613;83;20969;-72
2022/12/18 10:36:14;;;;;;;11.20;8.13;;;;;;;-1.61;63.88;101217.05;1715926;82;21655;-73
2022/12/18 10:38:40;;;;;;;10.82;8.05;;;;;;;-1.64;64.10;101211.89;1723883;81;22699;-73
2022/12/18 10:41:27;;;;;;;10.75;8.28;;;;;;;-1.64;64.20;101219.67;1726137;83;20997;-73
2022/12/18 10:44:13;;;;;;;11.25;7.92;;;;;;;-1.64;64.45;101214.08;1726259;81;21038;-73
2022/12/18 10:46:40;;;;;;;11.12;8.75;;;;;;;-1.63;64.59;101224.00;1715439;81;20973;-73
2022/12/18 10:49:19;;;;;;;13.15;9.13;;;;;;;-1.63;64.50;101221.41;1726408;82;21025;-73
2022/12/18 10:51:46;;;;;;;11.50;8.75;;;;;;;-1.63;64.38;101224.00;1715882;82;21924;-73
2022/12/18 10:54:21;;;;;;;13.32;9.10;;;;;;;-1.63;64.54;101230.47;1726729;83;21021;-73
2022/12/18 10:56:47;;;;;;;15.72;10.13;;;;;;;-1.66;64.21;101227.47;1717618;81;20996;-73
2022/12/18 10:59:17;;;;;;;14.47;9.55;;;;;;;-1.71;64.23;101219.37;1716298;82;21005;-73
2022/12/18 11:01:59;;;;;;;14.55;9.08;;;;;;;-1.74;64.27;101235.78;1716345;82;21036;-73
2022/12/18 11:04:29;;;;;;;11.57;8.08;;;;;;;-1.81;64.12;101238.93;1726702;81;21797;-73
2022/12/18 11:07:05;;;;;;;10.38;8.08;;;;;;;-1.84;64.02;101240.25;1728837;82;21450;-74
2022/12/18 11:09:37;;;;;;;10.60;7.47;;;;;;;-1.88;63.96;101241.62;1728124;82;21100;-73
2022/12/18 11:12:16;;;;;;;10.82;7.53;;;;;;;-1.91;63.68;101246.42;1724646;81;21062;-73
2022/12/18 11:14:48;;;;;;;10.38;7.35;;;;;;;-1.91;63.60;101253.33;1670656;84;21452;-73
2022/12/18 11:17:35;;;;;;;10.08;7.05;;;;;;;-1.89;63.49;101266.66;1722796;81;22583;-73
2022/12/18 11:20:06;;;;;;;9.38;7.20;;;;;;;-1.88;63.19;101260.60;1695410;83;21040;-73
2022/12/18 11:22:35;;;;;;;9.53;6.70;;;;;;;-1.87;63.22;101263.61;1726295;83;21158;-73
2022/12/18 11:25:18;;;;;;;8.68;6.72;;;;;;;-1.84;63.35;101271.76;1726625;81;21580;-74
2022/12/18 11:28:04;;;;;;;9.68;6.87;;;;;;;-1.82;63.36;101270.88;1726650;81;21053;-73
2022/12/18 11:30:36;;;;;;;9.00;6.67;;;;;;;-1.81;63.24;101266.56;1714316;82;21877;-74
2022/12/18 11:33:20;;;;;;;10.75;7.10;;;;;;;-1.79;63.25;101282.92;1694711;82;21492;-73
2022/12/18 11:35:54;;;;;;;17.30;12.25;;;;;;;-1.78;63.32;101280.31;1714999;83;21025;-73
2022/12/18 11:38:29;;;;;;;16.45;12.25;;;;;;;-1.78;63.33;101284.19;1715435;83;21517;-74
2022/12/18 11:41:12;;;;;;;20.05;13.88;;;;;;;-1.75;63.42;101280.70;1718790;83;20994;-73